createdAt,value
2019-02-16T00:01:03.105Z,99399.00
2019-02-16T00:06:09.907Z,99400.00
2019-02-16T00:11:16.417Z,99399.00
2019-02-16T00:16:23.820Z,99398.00
2019-02-16T00:21:30.806Z,99389.00
2019-02-16T00:26:37.573Z,99380.00
2019-02-16T00:31:44.401Z,99380.00
2019-02-16T00:36:51.272Z,99372.00
2019-02-16T00:41:58.040Z,99364.00
2019-02-16T00:47:05.064Z,99356.00
2019-02-16T00:52:33.153Z,99356.00
2019-02-16T00:57:40.022Z,99347.00
2019-02-16T01:02:47.063Z,99346.00
2019-02-16T01:07:54.133Z,99338.00
2019-02-16T01:13:00.958Z,99348.00
2019-02-16T01:18:09.239Z,99336.00
2019-02-16T01:23:16.798Z,99329.00
2019-02-16T01:28:23.071Z,99324.00
2019-02-16T01:33:29.086Z,99327.00
2019-02-16T01:38:35.790Z,99314.00
2019-02-16T01:43:42.819Z,99312.00
2019-02-16T01:48:49.888Z,99292.00
2019-02-16T01:53:57.009Z,99300.00
2019-02-16T01:59:03.921Z,99310.00
2019-02-16T02:04:10.676Z,99294.00
2019-02-16T02:09:17.471Z,99282.00
2019-02-16T02:14:23.455Z,99286.00
2019-02-16T02:19:31.256Z,99278.00
2019-02-16T02:24:38.492Z,99266.00
2019-02-16T02:29:45.258Z,99267.00
2019-02-16T02:34:52.057Z,99267.00
2019-02-16T02:39:58.538Z,99265.00
2019-02-16T02:45:08.339Z,99257.00
2019-02-16T02:50:15.181Z,99250.00
2019-02-16T02:55:23.194Z,99249.00
2019-02-16T03:05:37.622Z,99237.00
2019-02-16T03:10:56.318Z,99234.00
2019-02-16T03:16:04.285Z,99234.00
2019-02-16T03:21:11.198Z,99240.00
2019-02-16T03:26:37.214Z,99241.00
2019-02-16T03:32:15.000Z,99232.00
2019-02-16T03:38:03.044Z,99230.00
2019-02-16T03:43:09.867Z,99237.00
2019-02-16T03:48:16.781Z,99231.00
2019-02-16T03:53:23.059Z,99228.00
2019-02-16T03:58:29.013Z,99227.00
2019-02-16T04:03:35.054Z,99231.00
2019-02-16T04:08:41.519Z,99220.00
2019-02-16T04:14:09.648Z,99209.00
2019-02-16T04:19:16.159Z,99209.00
2019-02-16T04:24:23.064Z,99210.00
2019-02-16T04:29:28.981Z,99205.00
2019-02-16T04:34:35.814Z,99212.00
2019-02-16T04:39:42.746Z,99207.00
2019-02-16T04:44:49.611Z,99209.00
2019-02-16T04:49:56.091Z,99188.00
2019-02-16T04:55:03.990Z,99179.00
2019-02-16T05:00:11.690Z,99184.00
2019-02-16T05:05:18.617Z,99185.00
2019-02-16T05:10:24.510Z,99180.00
2019-02-16T05:15:31.499Z,99177.00
2019-02-16T05:20:38.521Z,99179.00
2019-02-16T05:25:45.405Z,99177.00
2019-02-16T05:30:52.368Z,99174.00
2019-02-16T05:36:20.399Z,99166.00
2019-02-16T05:41:26.325Z,99171.00
2019-02-16T05:46:33.221Z,99162.00
2019-02-16T05:51:40.092Z,99155.00
2019-02-16T05:56:47.724Z,99157.00
2019-02-16T06:01:54.604Z,99163.00
2019-02-16T06:07:01.503Z,99153.00
2019-02-16T06:12:08.936Z,99156.00
2019-02-16T06:17:16.224Z,99160.00
2019-02-16T06:22:23.135Z,99147.00
2019-02-16T06:27:29.074Z,99160.00
2019-02-16T06:32:35.961Z,99152.00
2019-02-16T06:37:43.895Z,99145.00
2019-02-16T06:43:12.014Z,99149.00
2019-02-16T06:48:18.840Z,99154.00
2019-02-16T06:53:24.798Z,99151.00
2019-02-16T06:58:31.537Z,99153.00
2019-02-16T07:03:59.751Z,99152.00
2019-02-16T07:09:07.109Z,99159.00
2019-02-16T07:14:13.878Z,99158.00
2019-02-16T07:19:22.367Z,99165.00
2019-02-16T07:24:28.330Z,99166.00
2019-02-16T07:29:35.331Z,99168.00
2019-02-16T07:34:41.819Z,99156.00
2019-02-16T07:39:48.606Z,99162.00
2019-02-16T07:44:59.346Z,99144.00
2019-02-16T07:50:10.538Z,99153.00
2019-02-16T07:55:27.858Z,99158.00
2019-02-16T08:00:36.261Z,99158.00
2019-02-16T08:06:00.793Z,99153.00
2019-02-16T08:11:08.876Z,99159.00
2019-02-16T08:16:19.993Z,99153.00
2019-02-16T08:21:27.535Z,99146.00
2019-02-16T08:26:36.040Z,99150.00
2019-02-16T08:31:50.442Z,99149.00
2019-02-16T08:42:24.687Z,99158.00
2019-02-16T08:47:44.053Z,99153.00
2019-02-16T08:53:10.719Z,99152.00
2019-02-16T08:58:22.176Z,99146.00
2019-02-16T09:03:41.961Z,99145.00
2019-02-16T09:09:06.909Z,99146.00
2019-02-16T09:14:49.860Z,99147.00
2019-02-16T09:20:01.462Z,99136.00
2019-02-16T09:25:13.283Z,99142.00
2019-02-16T09:30:36.602Z,99137.00
2019-02-16T09:36:00.711Z,99142.00
2019-02-16T09:41:18.388Z,99147.00
2019-02-16T09:52:10.932Z,99144.00
2019-02-16T09:57:19.479Z,99145.00
2019-02-16T10:02:42.311Z,99154.00
2019-02-16T10:07:53.395Z,99160.00
2019-02-16T10:13:10.547Z,99158.00
2019-02-16T10:18:22.066Z,99162.00
2019-02-16T10:23:44.875Z,99160.00
2019-02-16T10:28:53.535Z,99165.00
2019-02-16T10:34:04.947Z,99147.00
2019-02-16T10:39:22.336Z,99142.00
2019-02-16T10:44:35.926Z,99148.00
2019-02-16T10:49:50.549Z,99140.00
2019-02-16T10:54:59.284Z,99135.00
2019-02-16T11:00:13.471Z,99141.00
2019-02-16T11:05:24.833Z,99136.00
2019-02-16T11:10:32.472Z,99142.00
2019-02-16T11:15:57.401Z,99134.00
2019-02-16T11:21:05.740Z,99137.00
2019-02-16T11:26:15.021Z,99134.00
2019-02-16T11:31:29.041Z,99134.00
2019-02-16T11:36:39.136Z,99134.00
2019-02-16T11:41:56.589Z,99127.00
2019-02-16T11:47:08.645Z,99122.00
2019-02-16T11:52:23.097Z,99119.00
2019-02-16T11:57:33.463Z,99114.00
2019-02-16T12:02:51.146Z,99102.00
2019-02-16T12:08:02.519Z,99101.00
2019-02-16T12:13:23.070Z,99091.00
2019-02-16T12:18:39.232Z,99089.00
2019-02-16T12:23:47.902Z,99084.00
2019-02-16T12:29:14.862Z,99075.00
2019-02-16T12:34:35.612Z,99074.00
2019-02-16T12:39:50.256Z,99076.00
2019-02-16T12:44:58.284Z,99063.00
2019-02-16T12:50:11.268Z,99068.00
2019-02-16T12:55:22.564Z,99058.00
2019-02-16T13:00:39.259Z,99049.00
2019-02-16T13:05:50.453Z,99049.00
2019-02-16T13:11:01.314Z,99030.00
2019-02-16T13:16:09.798Z,99041.00
2019-02-16T13:21:24.034Z,99039.00
2019-02-16T13:26:38.680Z,99035.00
2019-02-16T13:32:01.742Z,99033.00
2019-02-16T13:37:13.404Z,99037.00
2019-02-16T13:42:38.259Z,99028.00
2019-02-16T13:47:48.231Z,99023.00
2019-02-16T13:53:13.283Z,99020.00
2019-02-16T13:58:26.614Z,99021.00
2019-02-16T14:03:35.384Z,99016.00
2019-02-16T14:08:56.463Z,99006.00
2019-02-16T14:14:05.115Z,99010.00
2019-02-16T14:19:13.179Z,99020.00
2019-02-16T14:24:22.007Z,99024.00
2019-02-16T14:29:28.105Z,99028.00
2019-02-16T14:34:40.913Z,99022.00
2019-02-16T14:39:48.105Z,99017.00
2019-02-16T14:44:54.840Z,99020.00
2019-02-16T14:50:01.239Z,99018.00
2019-02-16T14:55:12.954Z,99015.00
2019-02-16T15:00:20.488Z,99020.00
2019-02-16T15:05:27.599Z,99029.00
2019-02-16T15:10:33.550Z,99019.00
2019-02-16T15:15:40.746Z,99023.00
2019-02-16T15:20:47.562Z,99030.00
2019-02-16T15:26:00.766Z,99019.00
2019-02-16T15:31:03.836Z,99027.00
2019-02-16T15:36:13.027Z,99034.00
2019-02-16T15:41:19.656Z,99023.00
2019-02-16T15:46:27.091Z,99015.00
2019-02-16T15:51:32.991Z,99015.00
2019-02-16T15:56:41.276Z,99018.00
2019-02-16T16:01:48.714Z,99019.00
2019-02-16T16:06:55.707Z,99031.00
2019-02-16T16:12:13.198Z,99029.00
2019-02-16T16:17:37.536Z,99031.00
2019-02-16T16:22:55.107Z,99041.00
2019-02-16T16:28:18.136Z,99037.00
2019-02-16T16:33:40.875Z,99029.00
2019-02-16T16:39:00.937Z,99029.00
2019-02-16T16:44:22.908Z,99031.00
2019-02-16T16:49:30.368Z,99033.00
2019-02-16T16:54:50.524Z,99039.00
2019-02-16T17:00:04.958Z,99034.00
2019-02-16T17:05:13.519Z,99026.00
2019-02-16T17:10:27.834Z,99024.00
2019-02-16T17:15:38.523Z,99035.00
2019-02-16T17:21:17.234Z,99034.00
2019-02-16T17:26:27.568Z,99029.00
2019-02-16T17:31:41.481Z,99031.00
2019-02-16T17:36:50.320Z,99042.00
2019-02-16T17:42:15.780Z,99031.00
2019-02-16T17:47:27.681Z,99024.00
2019-02-16T17:52:41.983Z,99024.00
2019-02-16T17:57:58.423Z,99023.00
2019-02-16T18:03:09.523Z,99024.00
2019-02-16T18:08:30.461Z,99003.00
2019-02-16T18:13:47.658Z,99012.00
2019-02-16T18:18:56.994Z,99020.00
2019-02-16T18:24:08.282Z,99018.00
2019-02-16T18:29:22.294Z,99011.00
2019-02-16T18:34:38.704Z,99009.00
2019-02-16T18:39:50.326Z,98997.00
2019-02-16T18:45:09.179Z,99004.00
2019-02-16T18:50:35.144Z,99000.00
2019-02-16T18:55:43.549Z,99008.00
2019-02-16T19:01:08.579Z,98998.00
2019-02-16T19:06:19.759Z,98996.00
2019-02-16T19:11:27.220Z,98988.00
2019-02-16T19:16:38.468Z,99002.00
2019-02-16T19:21:46.778Z,98996.00
2019-02-16T19:26:58.324Z,98996.00
2019-02-16T19:32:21.773Z,98987.00
2019-02-16T19:37:29.201Z,98987.00
2019-02-16T19:42:54.467Z,98983.00
2019-02-16T19:48:24.084Z,98986.00
2019-02-16T19:53:35.723Z,98978.00
2019-02-16T19:59:02.441Z,98977.00
2019-02-16T20:04:10.841Z,98983.00
2019-02-16T20:09:19.310Z,98982.00
2019-02-16T20:14:35.942Z,98987.00
2019-02-16T20:20:01.132Z,98972.00
2019-02-16T20:25:25.263Z,98972.00
2019-02-16T20:30:38.655Z,98975.00
2019-02-16T20:35:47.144Z,98982.00
2019-02-16T20:41:01.478Z,98973.00
2019-02-16T20:46:12.308Z,98981.00
2019-02-16T20:51:20.337Z,98988.00
2019-02-16T20:56:43.992Z,98992.00
2019-02-16T21:01:52.341Z,98993.00
2019-02-16T21:07:19.024Z,98983.00
2019-02-16T21:12:35.822Z,98991.00
2019-02-16T21:17:44.243Z,98983.00
2019-02-16T21:22:58.697Z,98984.00
2019-02-16T21:28:24.388Z,98973.00
2019-02-16T21:33:32.015Z,98984.00
2019-02-16T21:38:42.990Z,98976.00
2019-02-16T21:43:54.052Z,98982.00
2019-02-16T21:49:02.316Z,98977.00
2019-02-16T21:54:26.214Z,98984.00
2019-02-16T21:59:33.671Z,98973.00
2019-02-16T22:04:48.030Z,98980.00
2019-02-16T22:09:56.566Z,99000.00
2019-02-16T22:15:04.349Z,98992.00
2019-02-16T22:20:11.474Z,98973.00
2019-02-16T22:25:20.742Z,98975.00
2019-02-16T22:30:25.976Z,98979.00
2019-02-16T22:35:31.925Z,98979.00
2019-02-16T22:40:39.246Z,98981.00
2019-02-16T22:45:45.849Z,98984.00
2019-02-16T22:50:52.753Z,99005.00
2019-02-16T22:55:59.490Z,98999.00
2019-02-16T23:01:06.545Z,98987.00
2019-02-16T23:06:14.981Z,98983.00
2019-02-16T23:11:21.691Z,98990.00
2019-02-16T23:16:28.204Z,98988.00
2019-02-16T23:21:36.634Z,98996.00
2019-02-16T23:26:43.491Z,98993.00
2019-02-16T23:31:50.232Z,98995.00
2019-02-16T23:36:56.587Z,98993.00
2019-02-16T23:42:04.305Z,98989.00
2019-02-16T23:47:11.083Z,98980.00
2019-02-16T23:52:17.856Z,98997.00
2019-02-16T23:57:23.881Z,98990.00
